createdAt,value
2018-08-23T00:01:35.346Z,59.13
2018-08-23T00:04:09.113Z,58.13
2018-08-23T00:06:41.182Z,56.73
2018-08-23T00:09:10.887Z,56.71
2018-08-23T00:11:47.494Z,55.73
2018-08-23T00:14:18.770Z,56.52
2018-08-23T00:16:49.697Z,56.22
2018-08-23T00:19:19.740Z,55.39
2018-08-23T00:21:52.549Z,55.18
2018-08-23T00:24:27.368Z,55.38
2018-08-23T00:26:58.991Z,55.51
2018-08-23T00:29:33.994Z,54.98
2018-08-23T00:32:04.679Z,53.73
2018-08-23T00:34:36.779Z,53.96
2018-08-23T00:37:06.750Z,52.73
2018-08-23T00:39:36.483Z,52.60
2018-08-23T00:42:09.079Z,53.50
2018-08-23T00:44:54.278Z,53.79
2018-08-23T00:47:28.867Z,53.75
2018-08-23T00:49:58.287Z,53.32
2018-08-23T00:52:36.143Z,53.33
2018-08-23T00:55:15.809Z,53.12
2018-08-23T00:57:46.339Z,53.13
2018-08-23T01:00:19.014Z,52.94
2018-08-23T01:02:52.639Z,52.87
2018-08-23T01:05:27.627Z,53.00
2018-08-23T01:07:57.207Z,52.39
2018-08-23T01:10:28.740Z,53.10
2018-08-23T01:12:59.251Z,52.96
2018-08-23T01:15:32.211Z,52.83
2018-08-23T01:18:13.174Z,52.54
2018-08-23T01:20:43.414Z,52.59
2018-08-23T01:23:13.247Z,52.50
2018-08-23T01:25:46.333Z,52.71
2018-08-23T01:28:15.838Z,52.71
2018-08-23T01:30:47.336Z,52.76
2018-08-23T01:33:19.418Z,52.89
2018-08-23T01:35:50.842Z,53.31
2018-08-23T01:38:20.287Z,52.54
2018-08-23T01:40:51.458Z,53.98
2018-08-23T01:43:22.018Z,54.03
2018-08-23T01:45:51.478Z,54.64
2018-08-23T01:48:22.167Z,54.30
2018-08-23T01:50:51.690Z,55.86
2018-08-23T01:53:23.078Z,55.90
2018-08-23T01:55:52.565Z,55.79
2018-08-23T01:58:22.023Z,56.21
2018-08-23T02:01:06.640Z,56.55
2018-08-23T02:03:37.130Z,57.84
2018-08-23T02:06:06.699Z,57.58
2018-08-23T02:08:36.512Z,57.88
2018-08-23T02:11:06.220Z,58.28
2018-08-23T02:13:35.688Z,58.41
2018-08-23T02:16:07.342Z,58.68
2018-08-23T02:18:38.118Z,59.46
2018-08-23T02:21:10.770Z,59.37
2018-08-23T02:23:45.386Z,60.37
2018-08-23T02:26:15.499Z,60.82
2018-08-23T02:28:47.559Z,60.48
2018-08-23T02:31:19.286Z,59.86
2018-08-23T02:33:49.566Z,61.35
2018-08-23T02:36:19.473Z,61.21
2018-08-23T02:39:25.623Z,61.13
2018-08-23T02:41:58.778Z,62.37
2018-08-23T02:44:28.238Z,61.13
2018-08-23T02:47:01.091Z,61.51
2018-08-23T02:49:30.598Z,61.69
2018-08-23T02:52:00.066Z,63.13
2018-08-23T02:54:30.015Z,62.70
2018-08-23T02:57:00.387Z,63.51
2018-08-23T02:59:30.622Z,63.20
2018-08-23T03:02:00.081Z,63.04
2018-08-23T03:04:30.308Z,64.09
2018-08-23T03:07:04.996Z,63.76
2018-08-23T03:09:41.707Z,64.75
2018-08-23T03:12:19.387Z,64.28
2018-08-23T03:14:49.221Z,64.39
2018-08-23T03:17:25.684Z,65.50
2018-08-23T03:20:08.813Z,65.22
2018-08-23T03:22:39.335Z,64.89
2018-08-23T03:25:10.890Z,65.38
2018-08-23T03:27:40.295Z,65.83
2018-08-23T03:30:11.444Z,65.76
2018-08-23T03:32:40.879Z,65.20
2018-08-23T03:35:10.688Z,65.23
2018-08-23T03:37:40.134Z,65.33
2018-08-23T03:40:11.217Z,66.05
2018-08-23T03:42:41.776Z,65.74
2018-08-23T03:45:16.459Z,65.96
2018-08-23T03:47:53.071Z,66.34
2018-08-23T03:50:22.637Z,66.54
2018-08-23T03:52:53.689Z,67.39
2018-08-23T03:55:24.456Z,66.86
2018-08-23T03:58:04.072Z,66.68
2018-08-23T04:00:39.406Z,66.70
2018-08-23T04:03:14.625Z,67.59
2018-08-23T04:05:44.978Z,66.94
2018-08-23T04:08:15.317Z,67.67
2018-08-23T04:10:45.538Z,67.89
2018-08-23T04:13:15.097Z,68.06
2018-08-23T04:15:46.559Z,67.82
2018-08-23T04:18:17.573Z,67.70
2018-08-23T04:20:56.540Z,67.90
2018-08-23T04:23:25.994Z,68.23
2018-08-23T04:25:55.959Z,67.86
2018-08-23T04:28:25.458Z,68.06
2018-08-23T04:30:57.185Z,68.88
2018-08-23T04:33:26.574Z,67.82
2018-08-23T04:35:57.364Z,69.02
2018-08-23T04:38:26.793Z,68.66
2018-08-23T04:40:58.485Z,69.21
2018-08-23T04:43:27.947Z,68.16
2018-08-23T04:45:58.447Z,68.43
2018-08-23T04:48:35.972Z,69.40
2018-08-23T04:51:05.654Z,68.89
2018-08-23T04:53:35.370Z,68.70
2018-08-23T04:56:04.797Z,68.69
2018-08-23T04:58:34.255Z,67.92
2018-08-23T05:01:03.703Z,68.04
2018-08-23T05:03:34.335Z,68.05
2018-08-23T05:06:03.832Z,68.17
2018-08-23T05:08:34.438Z,68.62
2018-08-23T05:11:03.848Z,67.97
2018-08-23T05:13:34.283Z,67.95
2018-08-23T05:16:04.072Z,68.12
2018-08-23T05:18:33.496Z,67.85
2018-08-23T05:21:03.853Z,67.62
2018-08-23T05:23:35.950Z,68.34
2018-08-23T05:26:12.790Z,68.07
2018-08-23T05:28:46.848Z,67.60
2018-08-23T05:31:16.258Z,68.44
2018-08-23T05:33:46.939Z,68.87
2018-08-23T05:36:17.516Z,67.61
2018-08-23T05:38:47.957Z,68.21
2018-08-23T05:41:24.422Z,68.81
2018-08-23T05:44:16.406Z,68.17
2018-08-23T05:47:00.595Z,69.65
2018-08-23T05:49:30.923Z,68.91
2018-08-23T05:52:02.620Z,69.29
2018-08-23T05:54:33.043Z,68.58
2018-08-23T05:57:04.683Z,69.01
2018-08-23T05:59:35.432Z,68.22
2018-08-23T06:02:04.855Z,67.47
2018-08-23T06:04:40.921Z,67.12
2018-08-23T06:07:11.583Z,66.34
2018-08-23T06:09:43.242Z,66.53
2018-08-23T06:12:12.739Z,65.83
2018-08-23T06:14:44.286Z,64.13
2018-08-23T06:17:13.766Z,63.81
2018-08-23T06:19:44.115Z,62.06
2018-08-23T06:22:13.567Z,62.59
2018-08-23T06:24:43.325Z,62.57
2018-08-23T06:27:12.760Z,58.67
2018-08-23T06:29:43.947Z,60.74
2018-08-23T06:32:13.478Z,60.29
2018-08-23T06:34:47.649Z,57.81
2018-08-23T06:37:17.931Z,55.27
2018-08-23T06:39:48.475Z,54.56
2018-08-23T06:42:17.924Z,55.19
2018-08-23T06:44:52.216Z,53.18
2018-08-23T06:47:23.228Z,53.12
2018-08-23T06:49:54.622Z,51.23
2018-08-23T06:52:32.959Z,50.97
2018-08-23T06:55:03.258Z,50.49
2018-08-23T06:57:44.517Z,49.19
2018-08-23T07:00:17.995Z,48.78
2018-08-23T07:02:48.279Z,48.67
2018-08-23T07:05:18.727Z,47.76
2018-08-23T07:07:48.179Z,46.29
2018-08-23T07:10:17.582Z,45.91
2018-08-23T07:12:47.612Z,46.35
2018-08-23T07:15:17.836Z,43.13
2018-08-23T07:17:47.450Z,43.44
2018-08-23T07:20:17.930Z,44.36
2018-08-23T07:22:53.310Z,44.25
2018-08-23T07:25:22.788Z,36.88
2018-08-23T07:27:52.685Z,36.68
2018-08-23T07:30:23.199Z,37.24
2018-08-23T07:32:53.784Z,36.55
2018-08-23T07:35:23.212Z,35.47
2018-08-23T07:37:54.100Z,35.21
2018-08-23T07:40:25.680Z,34.45
2018-08-23T07:42:57.608Z,34.78
2018-08-23T07:45:28.107Z,33.93
2018-08-23T07:47:57.756Z,34.42
2018-08-23T07:50:31.056Z,35.87
2018-08-23T07:53:00.439Z,35.82
2018-08-23T07:55:31.303Z,34.37
2018-08-23T07:58:01.302Z,34.59
2018-08-23T08:00:33.279Z,34.63
2018-08-23T08:03:05.054Z,34.37
2018-08-23T08:05:37.224Z,34.77
2018-08-23T08:08:10.466Z,34.79
2018-08-23T08:10:41.978Z,35.76
2018-08-23T08:13:12.589Z,35.70
2018-08-23T08:15:43.449Z,34.15
2018-08-23T08:18:17.171Z,34.23
2018-08-23T08:21:02.798Z,35.34
2018-08-23T08:23:33.288Z,35.04
2018-08-23T08:26:15.264Z,34.73
2018-08-23T08:28:46.378Z,34.30
2018-08-23T08:31:17.187Z,34.42
2018-08-23T08:33:48.016Z,34.40
2018-08-23T08:36:17.475Z,32.88
2018-08-23T08:38:47.457Z,33.61
2018-08-23T08:41:17.398Z,33.54
2018-08-23T08:43:51.064Z,33.01
2018-08-23T08:46:21.702Z,34.55
2018-08-23T08:48:51.158Z,33.83
2018-08-23T08:51:23.248Z,33.58
2018-08-23T08:53:54.528Z,33.16
2018-08-23T08:56:27.662Z,34.10
2018-08-23T08:58:57.636Z,33.49
2018-08-23T09:01:27.734Z,34.13
2018-08-23T09:03:58.746Z,33.68
2018-08-23T09:06:34.666Z,32.67
2018-08-23T09:09:14.779Z,33.47
2018-08-23T09:11:45.615Z,32.93
2018-08-23T09:14:16.460Z,33.62
2018-08-23T09:16:46.306Z,33.67
2018-08-23T09:19:16.328Z,32.46
2018-08-23T09:21:54.082Z,31.55
2018-08-23T09:24:28.471Z,32.47
2018-08-23T09:27:01.591Z,32.27
2018-08-23T09:29:38.675Z,33.07
2018-08-23T09:32:42.252Z,32.01
2018-08-23T09:35:16.373Z,32.87
2018-08-23T09:37:47.341Z,33.39
2018-08-23T09:40:18.002Z,32.67
2018-08-23T09:42:50.691Z,32.80
2018-08-23T09:45:21.727Z,31.73
2018-08-23T09:47:51.573Z,31.75
2018-08-23T09:50:20.980Z,31.96
2018-08-23T09:52:51.190Z,31.29
2018-08-23T09:55:25.335Z,31.05
2018-08-23T09:57:55.391Z,31.33
2018-08-23T10:00:32.936Z,31.54
2018-08-23T10:03:07.387Z,29.07
2018-08-23T10:05:49.849Z,29.48
2018-08-23T10:08:24.659Z,30.00
2018-08-23T10:10:59.930Z,29.65
2018-08-23T10:13:35.206Z,30.46
2018-08-23T10:16:09.955Z,28.99
2018-08-23T10:18:44.506Z,28.40
2018-08-23T10:21:15.462Z,28.62
2018-08-23T10:23:46.048Z,27.93
2018-08-23T10:26:30.114Z,28.25
2018-08-23T10:28:59.658Z,28.65
2018-08-23T10:31:29.041Z,28.12
2018-08-23T10:33:59.337Z,28.35
2018-08-23T10:36:31.604Z,28.22
2018-08-23T10:44:23.063Z,29.73
2018-08-23T10:46:56.469Z,26.88
2018-08-23T10:49:27.228Z,27.03
2018-08-23T10:52:00.806Z,27.67
2018-08-23T10:54:32.206Z,28.92
2018-08-23T10:57:01.632Z,28.55
2018-08-23T10:59:33.003Z,28.61
2018-08-23T11:02:04.654Z,26.38
2018-08-23T11:04:36.148Z,26.68
2018-08-23T11:07:07.197Z,28.53
2018-08-23T11:09:42.847Z,27.07
2018-08-23T11:12:18.197Z,26.21
2018-08-23T11:14:52.263Z,26.79
2018-08-23T11:17:28.016Z,26.78
2018-08-23T11:20:05.277Z,27.01
2018-08-23T11:22:38.717Z,26.37
2018-08-23T11:25:09.152Z,27.02
2018-08-23T11:27:38.644Z,27.26
2018-08-23T11:30:08.765Z,27.84
2018-08-23T11:32:38.939Z,28.69
2018-08-23T11:35:08.480Z,28.99
2018-08-23T11:37:39.207Z,29.96
2018-08-23T11:40:13.513Z,30.45
2018-08-23T11:42:42.947Z,30.56
2018-08-23T11:45:13.266Z,31.00
2018-08-23T11:47:46.617Z,29.86
2018-08-23T11:50:17.304Z,30.82
2018-08-23T11:52:47.644Z,29.94
2018-08-23T11:55:17.841Z,31.37
2018-08-23T11:57:48.718Z,31.68
2018-08-23T12:00:19.366Z,31.21
2018-08-23T12:02:48.876Z,30.70
2018-08-23T12:05:19.095Z,31.12
2018-08-23T12:07:53.174Z,29.74
2018-08-23T12:10:24.276Z,30.08
2018-08-23T12:12:54.786Z,29.56
2018-08-23T12:15:31.062Z,28.76
2018-08-23T12:18:01.499Z,29.00
2018-08-23T12:20:31.972Z,28.67
2018-08-23T12:23:01.480Z,29.15
2018-08-23T12:25:31.853Z,28.77
2018-08-23T12:29:04.584Z,29.06
2018-08-23T12:31:35.580Z,28.60
2018-08-23T12:34:08.281Z,28.41
2018-08-23T12:36:44.412Z,28.60
2018-08-23T12:39:19.671Z,28.56
2018-08-23T12:42:56.308Z,29.40
2018-08-23T12:45:25.777Z,28.96
2018-08-23T12:48:00.159Z,29.00
2018-08-23T12:50:29.599Z,30.49
2018-08-23T12:52:59.535Z,28.90
2018-08-23T12:55:36.375Z,28.39
2018-08-23T13:00:40.291Z,28.44
2018-08-23T13:03:11.445Z,28.83
2018-08-23T13:05:40.809Z,28.94
2018-08-23T13:08:12.923Z,29.61
2018-08-23T13:10:42.350Z,30.49
2018-08-23T13:13:12.458Z,30.82
2018-08-23T13:15:44.236Z,30.48
2018-08-23T13:18:21.307Z,30.10
2018-08-23T13:20:52.454Z,31.04
2018-08-23T13:23:23.928Z,31.90
2018-08-23T13:25:55.198Z,31.84
2018-08-23T13:28:26.400Z,32.59
2018-08-23T13:30:58.017Z,33.16
2018-08-23T13:33:27.756Z,35.50
2018-08-23T13:36:01.096Z,36.87
2018-08-23T13:38:30.532Z,39.44
2018-08-23T13:41:01.419Z,39.37
2018-08-23T13:43:30.823Z,39.13
2018-08-23T13:46:00.310Z,39.52
2018-08-23T13:48:30.523Z,39.60
2018-08-23T13:51:02.086Z,39.65
2018-08-23T13:53:31.479Z,39.88
2018-08-23T13:56:02.207Z,40.29
2018-08-23T13:58:31.639Z,40.90
2018-08-23T14:01:01.019Z,40.14
2018-08-23T14:03:32.165Z,40.19
2018-08-23T14:06:02.216Z,41.02
2018-08-23T14:08:32.181Z,39.86
2018-08-23T14:11:01.690Z,40.15
2018-08-23T14:13:33.284Z,40.47
2018-08-23T14:16:03.915Z,40.43
2018-08-23T14:18:34.763Z,39.88
2018-08-23T14:21:12.567Z,40.51
2018-08-23T14:23:45.321Z,40.07
2018-08-23T14:26:18.660Z,41.19
2018-08-23T14:28:49.661Z,41.01
2018-08-23T14:31:21.635Z,40.46
2018-08-23T14:33:51.005Z,41.13
2018-08-23T14:36:29.038Z,41.09
2018-08-23T14:38:58.950Z,40.72
2018-08-23T14:41:28.338Z,40.59
2018-08-23T14:43:58.414Z,40.96
2018-08-23T14:46:36.739Z,40.67
2018-08-23T14:49:06.211Z,40.76
2018-08-23T14:51:36.110Z,41.08
2018-08-23T14:54:15.961Z,41.00
2018-08-23T14:56:50.793Z,40.42
2018-08-23T14:59:20.983Z,41.13
2018-08-23T15:01:51.903Z,40.04
2018-08-23T15:04:23.049Z,40.40
2018-08-23T15:06:59.220Z,41.72
2018-08-23T15:09:29.406Z,41.37
2018-08-23T15:12:01.074Z,42.40
2018-08-23T15:14:33.937Z,42.41
2018-08-23T15:17:04.294Z,41.79
2018-08-23T15:19:34.155Z,42.46
2018-08-23T15:22:05.045Z,42.56
2018-08-23T15:24:35.788Z,43.76
2018-08-23T15:27:06.243Z,42.82
2018-08-23T15:29:36.366Z,43.99
2018-08-23T15:32:06.765Z,43.16
2018-08-23T15:34:37.649Z,43.36
2018-08-23T15:37:08.029Z,42.87
2018-08-23T15:39:40.750Z,43.28
2018-08-23T15:42:12.223Z,43.24
2018-08-23T15:44:41.607Z,43.66
2018-08-23T15:47:11.346Z,43.51
2018-08-23T15:49:40.734Z,42.90
2018-08-23T15:52:10.366Z,43.31
2018-08-23T15:54:42.806Z,42.85
2018-08-23T15:57:14.487Z,42.87
2018-08-23T15:59:44.581Z,41.88
2018-08-23T16:02:19.458Z,42.83
2018-08-23T16:04:52.990Z,42.60
2018-08-23T16:07:23.003Z,42.17
2018-08-23T16:09:53.335Z,42.01
2018-08-23T16:12:23.328Z,41.50
2018-08-23T16:14:55.046Z,41.42
2018-08-23T16:17:29.850Z,42.50
2018-08-23T16:20:04.576Z,42.53
2018-08-23T16:22:34.824Z,42.11
2018-08-23T16:25:06.811Z,42.93
2018-08-23T16:27:36.510Z,42.97
2018-08-23T16:30:05.917Z,43.47
2018-08-23T16:32:36.595Z,43.38
2018-08-23T16:35:06.022Z,44.56
2018-08-23T16:37:37.208Z,43.73
2018-08-23T16:40:08.931Z,43.20
2018-08-23T16:42:39.055Z,43.91
2018-08-23T16:45:08.415Z,43.10
2018-08-23T16:47:41.432Z,43.48
2018-08-23T16:50:14.003Z,45.33
2018-08-23T16:52:46.063Z,44.01
2018-08-23T16:55:17.208Z,44.09
2018-08-23T16:57:47.594Z,44.49
2018-08-23T17:00:18.452Z,44.50
2018-08-23T17:03:01.758Z,44.86
2018-08-23T17:05:36.932Z,45.03
2018-08-23T17:08:08.371Z,46.02
2018-08-23T17:10:39.736Z,46.36
2018-08-23T17:13:19.194Z,46.20
2018-08-23T17:15:57.672Z,46.81
2018-08-23T17:18:28.076Z,46.90
2018-08-23T17:20:58.627Z,46.84
2018-08-23T17:23:28.019Z,47.06
2018-08-23T17:25:59.109Z,46.74
2018-08-23T17:28:29.623Z,47.96
2018-08-23T17:31:04.260Z,48.11
2018-08-23T17:33:34.335Z,47.48
2018-08-23T17:36:04.342Z,47.28
2018-08-23T17:38:35.267Z,47.38
2018-08-23T17:41:08.122Z,47.81
2018-08-23T17:43:39.973Z,49.18
2018-08-23T17:46:18.532Z,48.14
2018-08-23T17:48:51.182Z,48.05
2018-08-23T17:51:23.108Z,47.82
2018-08-23T17:53:54.211Z,48.53
2018-08-23T17:56:39.534Z,49.19
2018-08-23T18:01:50.869Z,49.10
2018-08-23T18:04:23.870Z,49.24
2018-08-23T18:06:58.258Z,49.84
2018-08-23T18:09:27.615Z,50.34
2018-08-23T18:11:58.399Z,50.80
2018-08-23T18:14:32.799Z,50.15
2018-08-23T18:17:03.289Z,51.13
2018-08-23T18:19:33.283Z,49.81
2018-08-23T18:22:03.268Z,50.89
2018-08-23T18:24:34.247Z,50.10
2018-08-23T18:27:06.480Z,50.05
2018-08-23T18:29:38.618Z,50.19
2018-08-23T18:32:12.700Z,51.19
2018-08-23T18:34:48.014Z,50.59
2018-08-23T18:37:24.094Z,51.13
2018-08-23T18:39:55.694Z,51.56
2018-08-23T18:42:30.234Z,51.35
2018-08-23T18:45:03.346Z,50.90
2018-08-23T18:47:34.636Z,51.09
2018-08-23T18:50:04.959Z,51.30
2018-08-23T18:52:34.752Z,51.39
2018-08-23T18:55:06.959Z,51.40
2018-08-23T18:57:37.153Z,51.75
2018-08-23T19:00:07.269Z,51.28
2018-08-23T19:02:37.752Z,51.69
2018-08-23T19:05:07.224Z,51.96
2018-08-23T19:07:42.635Z,51.73
2018-08-23T19:10:36.452Z,50.86
2018-08-23T19:13:14.753Z,52.01
2018-08-23T19:15:52.745Z,52.51
2018-08-23T19:18:28.378Z,52.14
2018-08-23T19:23:04.774Z,51.34
2018-08-23T19:25:35.684Z,52.09
2018-08-23T19:28:09.225Z,52.17
2018-08-23T19:30:39.647Z,52.76
2018-08-23T19:33:11.258Z,52.37
2018-08-23T19:35:45.697Z,53.12
2018-08-23T19:38:17.863Z,52.45
2018-08-23T19:40:51.406Z,53.03
2018-08-23T19:43:24.084Z,53.90
2018-08-23T19:45:59.484Z,52.77
2018-08-23T19:48:28.945Z,52.21
2018-08-23T19:51:04.533Z,52.78
2018-08-23T19:53:35.264Z,53.49
2018-08-23T19:56:08.412Z,53.47
2018-08-23T19:58:39.507Z,53.41
2018-08-23T20:01:08.886Z,53.38
2018-08-23T20:03:38.594Z,53.86
2018-08-23T20:06:10.476Z,53.26
2018-08-23T20:08:40.539Z,54.45
2018-08-23T20:11:10.630Z,54.57
2018-08-23T20:13:44.450Z,54.01
2018-08-23T20:16:13.830Z,55.22
2018-08-23T20:18:45.342Z,54.59
2018-08-23T20:21:16.885Z,54.96
2018-08-23T20:23:51.482Z,55.43
2018-08-23T20:26:24.631Z,55.53
2018-08-23T20:28:57.022Z,56.67
2018-08-23T20:31:28.290Z,57.20
2018-08-23T20:34:16.422Z,56.57
2018-08-23T20:36:50.907Z,57.17
2018-08-23T20:39:27.198Z,56.36
2018-08-23T20:41:59.618Z,56.54
2018-08-23T20:44:30.296Z,57.33
2018-08-23T20:47:00.439Z,56.40
2018-08-23T20:49:29.887Z,57.71
2018-08-23T20:51:59.775Z,57.47
2018-08-23T20:54:29.253Z,57.90
2018-08-23T20:57:00.691Z,58.03
2018-08-23T20:59:30.654Z,57.87
2018-08-23T21:02:13.240Z,58.14
2018-08-23T21:04:46.283Z,57.95
2018-08-23T21:07:15.633Z,57.61
2018-08-23T21:09:47.555Z,58.00
2018-08-23T21:12:19.152Z,57.31
2018-08-23T21:17:30.545Z,57.71
2018-08-23T21:20:03.447Z,56.56
2018-08-23T21:22:35.239Z,56.47
2018-08-23T21:25:07.282Z,55.69
2018-08-23T21:27:40.552Z,55.20
2018-08-23T21:30:10.542Z,56.31
2018-08-23T21:32:47.580Z,55.17
2018-08-23T21:35:19.494Z,56.09
2018-08-23T21:37:48.932Z,56.24
2018-08-23T21:40:19.221Z,55.30
2018-08-23T21:42:48.617Z,56.23
2018-08-23T21:45:18.614Z,56.01
2018-08-23T21:47:49.506Z,56.16
2018-08-23T21:50:21.364Z,56.17
2018-08-23T21:52:52.321Z,55.46
2018-08-23T21:55:26.727Z,56.32
2018-08-23T21:57:56.958Z,55.75
2018-08-23T22:00:26.870Z,56.79
2018-08-23T22:02:57.049Z,56.39
2018-08-23T22:05:34.500Z,55.54
2018-08-23T22:08:04.978Z,57.04
2018-08-23T22:10:37.587Z,56.88
2018-08-23T22:13:08.281Z,55.89
2018-08-23T22:15:43.009Z,56.49
2018-08-23T22:18:13.337Z,56.52
2018-08-23T22:20:43.508Z,55.66
2018-08-23T22:23:13.242Z,56.27
2018-08-23T22:25:44.315Z,54.77
2018-08-23T22:28:13.706Z,54.11
2018-08-23T22:30:43.378Z,55.07
2018-08-23T22:33:15.335Z,53.69
2018-08-23T22:35:46.553Z,53.98
2018-08-23T22:38:17.422Z,53.45
2018-08-23T22:40:46.836Z,53.51
2018-08-23T22:43:17.511Z,52.94
2018-08-23T22:45:46.910Z,53.26
2018-08-23T22:48:17.197Z,53.81
2018-08-23T22:50:48.199Z,53.16
2018-08-23T22:53:24.265Z,53.43
2018-08-23T22:55:58.556Z,53.97
2018-08-23T22:58:28.912Z,53.29
2018-08-23T23:00:59.271Z,54.27
2018-08-23T23:03:33.962Z,54.23
2018-08-23T23:06:03.627Z,54.38
2018-08-23T23:08:34.190Z,53.88
2018-08-23T23:11:04.188Z,54.44
2018-08-23T23:13:33.560Z,54.59
2018-08-23T23:16:02.975Z,54.72
2018-08-23T23:18:32.944Z,53.78
2018-08-23T23:21:03.811Z,53.93
2018-08-23T23:23:33.193Z,53.84
2018-08-23T23:26:03.163Z,54.21
2018-08-23T23:28:32.607Z,54.57
2018-08-23T23:31:02.486Z,53.98
2018-08-23T23:33:32.903Z,54.43
2018-08-23T23:36:03.067Z,54.40
2018-08-23T23:38:33.042Z,53.54
2018-08-23T23:41:02.825Z,54.17
2018-08-23T23:43:32.222Z,53.53
2018-08-23T23:46:03.669Z,54.40
2018-08-23T23:48:33.463Z,53.68
2018-08-23T23:51:05.029Z,53.85
2018-08-23T23:53:36.234Z,54.72
2018-08-23T23:56:07.250Z,54.27
2018-08-23T23:58:36.668Z,54.42
